sensor_id;sensor_type;location;lat;lon;timestamp;P1;durP1;ratioP1;P2;durP2;ratioP2
7045;SDS011;3564;53.326;10.356;2022-08-19T00:02:04;9.70;;;7.60;;
7045;SDS011;3564;53.326;10.356;2022-08-19T00:04:33;10.40;;;7.87;;
7045;SDS011;3564;53.326;10.356;2022-08-19T00:07:01;11.23;;;8.70;;
7045;SDS011;3564;53.326;10.356;2022-08-19T00:09:28;9.33;;;8.23;;
7045;SDS011;3564;53.326;10.356;2022-08-19T00:11:54;9.57;;;8.07;;
7045;SDS011;3564;53.326;10.356;2022-08-19T00:14:21;9.43;;;7.70;;
7045;SDS011;3564;53.326;10.356;2022-08-19T00:16:49;14.13;;;7.83;;
7045;SDS011;3564;53.326;10.356;2022-08-19T00:19:18;9.37;;;6.80;;
7045;SDS011;3564;53.326;10.356;2022-08-19T00:21:44;8.87;;;7.57;;
7045;SDS011;3564;53.326;10.356;2022-08-19T00:24:11;8.73;;;7.23;;
7045;SDS011;3564;53.326;10.356;2022-08-19T00:26:39;10.03;;;7.30;;
7045;SDS011;3564;53.326;10.356;2022-08-19T00:29:09;10.07;;;7.87;;
7045;SDS011;3564;53.326;10.356;2022-08-19T00:31:37;10.27;;;7.90;;
7045;SDS011;3564;53.326;10.356;2022-08-19T00:34:02;7.73;;;6.80;;
7045;SDS011;3564;53.326;10.356;2022-08-19T00:36:29;9.73;;;7.87;;
7045;SDS011;3564;53.326;10.356;2022-08-19T00:38:54;12.43;;;8.37;;
7045;SDS011;3564;53.326;10.356;2022-08-19T00:41:20;9.40;;;7.33;;
7045;SDS011;3564;53.326;10.356;2022-08-19T00:44:01;8.10;;;7.33;;
7045;SDS011;3564;53.326;10.356;2022-08-19T00:46:37;8.67;;;6.97;;
7045;SDS011;3564;53.326;10.356;2022-08-19T00:49:15;9.40;;;7.57;;
7045;SDS011;3564;53.326;10.356;2022-08-19T00:52:09;7.23;;;6.50;;
7045;SDS011;3564;53.326;10.356;2022-08-19T00:54:41;6.80;;;6.10;;
7045;SDS011;3564;53.326;10.356;2022-08-19T00:57:09;8.20;;;6.63;;
7045;SDS011;3564;53.326;10.356;2022-08-19T00:59:40;7.07;;;6.37;;
7045;SDS011;3564;53.326;10.356;2022-08-19T01:02:07;7.50;;;6.40;;
7045;SDS011;3564;53.326;10.356;2022-08-19T01:04:33;10.40;;;6.73;;
7045;SDS011;3564;53.326;10.356;2022-08-19T01:06:59;7.73;;;6.27;;
7045;SDS011;3564;53.326;10.356;2022-08-19T01:09:26;8.23;;;6.60;;
7045;SDS011;3564;53.326;10.356;2022-08-19T01:11:52;7.70;;;6.60;;
7045;SDS011;3564;53.326;10.356;2022-08-19T01:14:17;7.10;;;6.37;;
7045;SDS011;3564;53.326;10.356;2022-08-19T01:16:44;8.27;;;5.87;;
7045;SDS011;3564;53.326;10.356;2022-08-19T01:19:18;6.70;;;6.00;;
7045;SDS011;3564;53.326;10.356;2022-08-19T01:22:10;8.73;;;6.67;;
7045;SDS011;3564;53.326;10.356;2022-08-19T01:24:48;6.33;;;5.70;;
7045;SDS011;3564;53.326;10.356;2022-08-19T01:27:14;8.27;;;6.17;;
7045;SDS011;3564;53.326;10.356;2022-08-19T01:29:40;9.63;;;6.73;;
7045;SDS011;3564;53.326;10.356;2022-08-19T01:32:07;7.83;;;6.40;;
7045;SDS011;3564;53.326;10.356;2022-08-19T01:34:37;7.37;;;6.27;;
7045;SDS011;3564;53.326;10.356;2022-08-19T01:37:05;6.90;;;6.20;;
7045;SDS011;3564;53.326;10.356;2022-08-19T01:39:33;8.40;;;6.53;;
7045;SDS011;3564;53.326;10.356;2022-08-19T01:41:59;9.70;;;6.17;;
7045;SDS011;3564;53.326;10.356;2022-08-19T01:44:28;7.90;;;6.90;;
7045;SDS011;3564;53.326;10.356;2022-08-19T01:46:54;7.33;;;6.43;;
7045;SDS011;3564;53.326;10.356;2022-08-19T01:49:21;7.77;;;6.67;;
7045;SDS011;3564;53.326;10.356;2022-08-19T01:51:49;7.70;;;6.90;;
7045;SDS011;3564;53.326;10.356;2022-08-19T01:54:17;8.77;;;6.50;;
7045;SDS011;3564;53.326;10.356;2022-08-19T01:56:43;9.43;;;7.67;;
7045;SDS011;3564;53.326;10.356;2022-08-19T01:59:10;10.37;;;6.73;;
7045;SDS011;3564;53.326;10.356;2022-08-19T02:01:40;8.23;;;7.43;;
7045;SDS011;3564;53.326;10.356;2022-08-19T02:04:06;7.83;;;6.43;;
7045;SDS011;3564;53.326;10.356;2022-08-19T02:06:33;10.90;;;6.83;;
7045;SDS011;3564;53.326;10.356;2022-08-19T02:08:58;10.30;;;7.63;;
7045;SDS011;3564;53.326;10.356;2022-08-19T02:11:29;10.07;;;8.00;;
7045;SDS011;3564;53.326;10.356;2022-08-19T02:13:57;9.13;;;7.37;;
7045;SDS011;3564;53.326;10.356;2022-08-19T02:16:23;12.20;;;6.57;;
7045;SDS011;3564;53.326;10.356;2022-08-19T02:18:49;10.80;;;7.10;;
7045;SDS011;3564;53.326;10.356;2022-08-19T02:21:18;9.53;;;7.50;;
7045;SDS011;3564;53.326;10.356;2022-08-19T02:23:46;9.00;;;7.03;;
7045;SDS011;3564;53.326;10.356;2022-08-19T02:26:12;9.80;;;7.67;;
7045;SDS011;3564;53.326;10.356;2022-08-19T02:28:38;9.33;;;7.57;;
7045;SDS011;3564;53.326;10.356;2022-08-19T02:31:08;7.90;;;7.10;;
7045;SDS011;3564;53.326;10.356;2022-08-19T02:33:35;8.20;;;7.40;;
7045;SDS011;3564;53.326;10.356;2022-08-19T02:36:02;9.37;;;7.40;;
7045;SDS011;3564;53.326;10.356;2022-08-19T02:38:29;8.07;;;7.27;;
7045;SDS011;3564;53.326;10.356;2022-08-19T02:43:26;9.17;;;7.00;;
7045;SDS011;3564;53.326;10.356;2022-08-19T02:45:54;8.83;;;7.30;;
7045;SDS011;3564;53.326;10.356;2022-08-19T02:48:20;9.90;;;8.53;;
7045;SDS011;3564;53.326;10.356;2022-08-19T02:50:47;12.47;;;8.50;;
7045;SDS011;3564;53.326;10.356;2022-08-19T02:53:23;9.10;;;7.10;;
7045;SDS011;3564;53.326;10.356;2022-08-19T02:55:50;9.00;;;7.33;;
7045;SDS011;3564;53.326;10.356;2022-08-19T02:58:16;10.77;;;7.23;;
7045;SDS011;3564;53.326;10.356;2022-08-19T03:00:46;7.77;;;6.97;;
7045;SDS011;3564;53.326;10.356;2022-08-19T03:03:14;8.50;;;6.93;;
7045;SDS011;3564;53.326;10.356;2022-08-19T03:05:41;7.87;;;6.83;;
7045;SDS011;3564;53.326;10.356;2022-08-19T03:08:08;9.40;;;7.23;;
7045;SDS011;3564;53.326;10.356;2022-08-19T03:10:46;8.67;;;7.37;;
7045;SDS011;3564;53.326;10.356;2022-08-19T03:13:14;11.20;;;7.67;;
7045;SDS011;3564;53.326;10.356;2022-08-19T03:15:43;10.63;;;8.23;;
7045;SDS011;3564;53.326;10.356;2022-08-19T03:18:10;8.93;;;8.03;;
7045;SDS011;3564;53.326;10.356;2022-08-19T03:20:40;9.13;;;7.53;;
7045;SDS011;3564;53.326;10.356;2022-08-19T03:23:07;9.80;;;8.13;;
7045;SDS011;3564;53.326;10.356;2022-08-19T03:25:36;8.97;;;7.27;;
7045;SDS011;3564;53.326;10.356;2022-08-19T03:28:03;11.57;;;8.33;;
7045;SDS011;3564;53.326;10.356;2022-08-19T03:30:28;11.03;;;8.20;;
7045;SDS011;3564;53.326;10.356;2022-08-19T03:32:54;9.63;;;7.90;;
7045;SDS011;3564;53.326;10.356;2022-08-19T03:35:23;9.87;;;7.70;;
7045;SDS011;3564;53.326;10.356;2022-08-19T03:37:48;11.83;;;8.50;;
7045;SDS011;3564;53.326;10.356;2022-08-19T03:40:14;10.83;;;8.37;;
7045;SDS011;3564;53.326;10.356;2022-08-19T03:42:40;10.30;;;7.83;;
7045;SDS011;3564;53.326;10.356;2022-08-19T03:45:07;10.53;;;8.67;;
7045;SDS011;3564;53.326;10.356;2022-08-19T03:47:33;10.57;;;9.03;;
7045;SDS011;3564;53.326;10.356;2022-08-19T03:49:58;10.30;;;8.37;;
7045;SDS011;3564;53.326;10.356;2022-08-19T03:52:24;13.63;;;8.80;;
7045;SDS011;3564;53.326;10.356;2022-08-19T03:54:53;10.33;;;7.77;;
7045;SDS011;3564;53.326;10.356;2022-08-19T03:57:18;8.93;;;7.27;;
7045;SDS011;3564;53.326;10.356;2022-08-19T03:59:44;11.10;;;8.50;;
7045;SDS011;3564;53.326;10.356;2022-08-19T04:02:10;10.40;;;8.47;;
7045;SDS011;3564;53.326;10.356;2022-08-19T04:04:39;11.67;;;8.17;;
7045;SDS011;3564;53.326;10.356;2022-08-19T04:07:06;10.63;;;8.37;;
7045;SDS011;3564;53.326;10.356;2022-08-19T04:09:33;13.10;;;9.40;;
7045;SDS011;3564;53.326;10.356;2022-08-19T04:11:59;12.40;;;8.03;;
7045;SDS011;3564;53.326;10.356;2022-08-19T04:14:26;14.53;;;9.20;;
7045;SDS011;3564;53.326;10.356;2022-08-19T04:16:54;11.73;;;8.67;;
7045;SDS011;3564;53.326;10.356;2022-08-19T04:19:19;10.53;;;8.57;;
7045;SDS011;3564;53.326;10.356;2022-08-19T04:21:46;13.23;;;8.63;;
7045;SDS011;3564;53.326;10.356;2022-08-19T04:24:14;10.93;;;8.17;;
7045;SDS011;3564;53.326;10.356;2022-08-19T04:26:40;14.90;;;9.17;;
7045;SDS011;3564;53.326;10.356;2022-08-19T04:29:07;10.77;;;8.60;;
7045;SDS011;3564;53.326;10.356;2022-08-19T04:31:35;12.43;;;8.30;;
7045;SDS011;3564;53.326;10.356;2022-08-19T04:34:01;9.70;;;8.47;;
7045;SDS011;3564;53.326;10.356;2022-08-19T04:36:33;10.80;;;7.97;;
7045;SDS011;3564;53.326;10.356;2022-08-19T04:39:03;10.03;;;8.93;;
7045;SDS011;3564;53.326;10.356;2022-08-19T04:41:31;16.20;;;9.77;;
7045;SDS011;3564;53.326;10.356;2022-08-19T04:44:15;10.93;;;9.00;;
7045;SDS011;3564;53.326;10.356;2022-08-19T04:46:43;11.00;;;7.93;;
7045;SDS011;3564;53.326;10.356;2022-08-19T04:49:09;12.00;;;8.87;;
7045;SDS011;3564;53.326;10.356;2022-08-19T04:51:36;13.93;;;11.17;;
7045;SDS011;3564;53.326;10.356;2022-08-19T04:54:03;16.77;;;11.23;;
7045;SDS011;3564;53.326;10.356;2022-08-19T04:56:29;15.83;;;11.13;;
7045;SDS011;3564;53.326;10.356;2022-08-19T04:58:55;19.00;;;12.27;;
7045;SDS011;3564;53.326;10.356;2022-08-19T05:01:23;22.57;;;11.97;;
7045;SDS011;3564;53.326;10.356;2022-08-19T05:03:51;20.70;;;13.90;;
7045;SDS011;3564;53.326;10.356;2022-08-19T05:06:21;21.63;;;14.27;;
7045;SDS011;3564;53.326;10.356;2022-08-19T05:08:48;23.70;;;16.10;;
7045;SDS011;3564;53.326;10.356;2022-08-19T05:11:27;24.00;;;15.87;;
7045;SDS011;3564;53.326;10.356;2022-08-19T05:13:55;21.27;;;15.00;;
7045;SDS011;3564;53.326;10.356;2022-08-19T05:16:22;21.33;;;14.87;;
7045;SDS011;3564;53.326;10.356;2022-08-19T05:18:49;24.83;;;15.00;;
7045;SDS011;3564;53.326;10.356;2022-08-19T05:21:34;25.43;;;16.53;;
7045;SDS011;3564;53.326;10.356;2022-08-19T05:24:19;23.53;;;15.90;;
7045;SDS011;3564;53.326;10.356;2022-08-19T05:26:47;23.83;;;14.67;;
7045;SDS011;3564;53.326;10.356;2022-08-19T05:29:14;27.43;;;17.33;;
7045;SDS011;3564;53.326;10.356;2022-08-19T05:31:42;27.37;;;17.60;;
7045;SDS011;3564;53.326;10.356;2022-08-19T05:34:09;26.40;;;16.63;;
7045;SDS011;3564;53.326;10.356;2022-08-19T05:36:44;23.50;;;16.90;;
7045;SDS011;3564;53.326;10.356;2022-08-19T05:39:22;26.63;;;18.50;;
7045;SDS011;3564;53.326;10.356;2022-08-19T05:41:51;24.53;;;17.33;;
7045;SDS011;3564;53.326;10.356;2022-08-19T05:44:21;23.57;;;16.20;;
7045;SDS011;3564;53.326;10.356;2022-08-19T05:46:48;25.27;;;16.70;;
7045;SDS011;3564;53.326;10.356;2022-08-19T05:49:14;26.90;;;18.23;;
7045;SDS011;3564;53.326;10.356;2022-08-19T05:51:41;24.53;;;18.70;;
7045;SDS011;3564;53.326;10.356;2022-08-19T05:54:07;26.37;;;17.97;;
7045;SDS011;3564;53.326;10.356;2022-08-19T05:56:34;22.87;;;17.03;;
7045;SDS011;3564;53.326;10.356;2022-08-19T05:59:03;27.60;;;18.23;;
7045;SDS011;3564;53.326;10.356;2022-08-19T06:01:33;31.40;;;20.90;;
7045;SDS011;3564;53.326;10.356;2022-08-19T06:03:59;29.50;;;21.87;;
7045;SDS011;3564;53.326;10.356;2022-08-19T06:06:25;32.10;;;22.30;;
7045;SDS011;3564;53.326;10.356;2022-08-19T06:08:50;34.43;;;23.20;;
7045;SDS011;3564;53.326;10.356;2022-08-19T06:11:22;34.63;;;21.57;;
7045;SDS011;3564;53.326;10.356;2022-08-19T06:13:50;35.90;;;23.73;;
7045;SDS011;3564;53.326;10.356;2022-08-19T06:16:20;34.30;;;24.10;;
7045;SDS011;3564;53.326;10.356;2022-08-19T06:18:50;36.27;;;24.80;;
7045;SDS011;3564;53.326;10.356;2022-08-19T06:21:20;40.50;;;25.80;;
7045;SDS011;3564;53.326;10.356;2022-08-19T06:23:48;35.10;;;24.60;;
7045;SDS011;3564;53.326;10.356;2022-08-19T06:26:17;38.30;;;26.10;;
7045;SDS011;3564;53.326;10.356;2022-08-19T06:28:44;41.80;;;26.23;;
7045;SDS011;3564;53.326;10.356;2022-08-19T06:31:12;36.67;;;25.57;;
7045;SDS011;3564;53.326;10.356;2022-08-19T06:33:39;42.03;;;27.53;;
7045;SDS011;3564;53.326;10.356;2022-08-19T06:36:05;39.17;;;27.50;;
7045;SDS011;3564;53.326;10.356;2022-08-19T06:38:31;41.27;;;27.23;;
7045;SDS011;3564;53.326;10.356;2022-08-19T06:41:02;39.20;;;27.53;;
7045;SDS011;3564;53.326;10.356;2022-08-19T06:43:29;33.93;;;25.67;;
7045;SDS011;3564;53.326;10.356;2022-08-19T06:45:55;34.63;;;26.80;;
7045;SDS011;3564;53.326;10.356;2022-08-19T06:48:21;35.73;;;25.30;;
7045;SDS011;3564;53.326;10.356;2022-08-19T06:50:46;35.60;;;25.67;;
7045;SDS011;3564;53.326;10.356;2022-08-19T06:53:14;37.33;;;26.53;;
7045;SDS011;3564;53.326;10.356;2022-08-19T06:55:40;36.17;;;27.27;;
7045;SDS011;3564;53.326;10.356;2022-08-19T06:58:06;36.50;;;25.77;;
7045;SDS011;3564;53.326;10.356;2022-08-19T07:00:31;32.73;;;26.10;;
7045;SDS011;3564;53.326;10.356;2022-08-19T07:02:59;41.70;;;27.00;;
7045;SDS011;3564;53.326;10.356;2022-08-19T07:05:25;36.23;;;25.77;;
7045;SDS011;3564;53.326;10.356;2022-08-19T07:07:50;37.60;;;26.27;;
7045;SDS011;3564;53.326;10.356;2022-08-19T07:10:16;32.90;;;23.27;;
7045;SDS011;3564;53.326;10.356;2022-08-19T07:12:42;37.13;;;26.63;;
7045;SDS011;3564;53.326;10.356;2022-08-19T07:15:09;41.00;;;28.10;;
7045;SDS011;3564;53.326;10.356;2022-08-19T07:17:35;38.10;;;27.73;;
7045;SDS011;3564;53.326;10.356;2022-08-19T07:20:04;42.13;;;27.07;;
7045;SDS011;3564;53.326;10.356;2022-08-19T07:22:33;35.70;;;25.50;;
7045;SDS011;3564;53.326;10.356;2022-08-19T07:24:59;46.97;;;27.43;;
7045;SDS011;3564;53.326;10.356;2022-08-19T07:27:28;41.20;;;27.13;;
7045;SDS011;3564;53.326;10.356;2022-08-19T07:29:53;39.10;;;29.00;;
7045;SDS011;3564;53.326;10.356;2022-08-19T07:32:19;41.87;;;26.70;;
7045;SDS011;3564;53.326;10.356;2022-08-19T07:34:44;42.10;;;27.93;;
7045;SDS011;3564;53.326;10.356;2022-08-19T07:37:10;39.60;;;27.70;;
7045;SDS011;3564;53.326;10.356;2022-08-19T07:39:37;42.73;;;29.63;;
7045;SDS011;3564;53.326;10.356;2022-08-19T07:42:05;45.87;;;29.47;;
7045;SDS011;3564;53.326;10.356;2022-08-19T07:44:34;47.33;;;29.53;;
7045;SDS011;3564;53.326;10.356;2022-08-19T07:47:00;45.17;;;30.20;;
7045;SDS011;3564;53.326;10.356;2022-08-19T07:49:29;47.43;;;29.07;;
7045;SDS011;3564;53.326;10.356;2022-08-19T07:51:57;38.47;;;29.27;;
7045;SDS011;3564;53.326;10.356;2022-08-19T07:54:26;46.73;;;29.37;;
7045;SDS011;3564;53.326;10.356;2022-08-19T07:56:55;44.80;;;30.33;;
7045;SDS011;3564;53.326;10.356;2022-08-19T07:59:22;46.73;;;28.73;;
7045;SDS011;3564;53.326;10.356;2022-08-19T08:01:48;38.47;;;28.10;;
7045;SDS011;3564;53.326;10.356;2022-08-19T08:04:15;47.40;;;30.33;;
7045;SDS011;3564;53.326;10.356;2022-08-19T08:07:00;47.07;;;29.57;;
7045;SDS011;3564;53.326;10.356;2022-08-19T08:09:44;42.00;;;28.17;;
7045;SDS011;3564;53.326;10.356;2022-08-19T08:12:11;41.77;;;28.00;;
7045;SDS011;3564;53.326;10.356;2022-08-19T08:14:43;43.13;;;28.87;;
7045;SDS011;3564;53.326;10.356;2022-08-19T08:17:12;45.83;;;30.00;;
7045;SDS011;3564;53.326;10.356;2022-08-19T08:19:39;44.00;;;29.43;;
7045;SDS011;3564;53.326;10.356;2022-08-19T08:22:09;50.37;;;31.17;;
7045;SDS011;3564;53.326;10.356;2022-08-19T08:24:55;44.20;;;28.60;;
7045;SDS011;3564;53.326;10.356;2022-08-19T08:27:23;44.50;;;29.20;;
7045;SDS011;3564;53.326;10.356;2022-08-19T08:29:49;42.63;;;27.60;;
7045;SDS011;3564;53.326;10.356;2022-08-19T08:32:15;45.40;;;28.33;;
7045;SDS011;3564;53.326;10.356;2022-08-19T08:34:41;41.07;;;26.03;;
7045;SDS011;3564;53.326;10.356;2022-08-19T08:37:07;45.63;;;28.30;;
7045;SDS011;3564;53.326;10.356;2022-08-19T08:39:32;43.47;;;29.00;;
7045;SDS011;3564;53.326;10.356;2022-08-19T08:42:05;47.13;;;28.40;;
7045;SDS011;3564;53.326;10.356;2022-08-19T08:44:53;44.20;;;25.87;;
7045;SDS011;3564;53.326;10.356;2022-08-19T08:47:30;39.00;;;25.80;;
7045;SDS011;3564;53.326;10.356;2022-08-19T08:50:03;37.63;;;25.13;;
7045;SDS011;3564;53.326;10.356;2022-08-19T08:52:37;39.70;;;24.60;;
7045;SDS011;3564;53.326;10.356;2022-08-19T08:55:18;39.37;;;24.87;;
7045;SDS011;3564;53.326;10.356;2022-08-19T08:57:53;35.93;;;24.00;;
7045;SDS011;3564;53.326;10.356;2022-08-19T09:00:29;37.90;;;22.77;;
7045;SDS011;3564;53.326;10.356;2022-08-19T09:02:58;36.20;;;23.50;;
7045;SDS011;3564;53.326;10.356;2022-08-19T09:11:09;28.53;;;21.37;;
7045;SDS011;3564;53.326;10.356;2022-08-19T09:13:49;30.60;;;20.03;;
7045;SDS011;3564;53.326;10.356;2022-08-19T09:16:22;27.80;;;19.83;;
7045;SDS011;3564;53.326;10.356;2022-08-19T09:18:52;30.00;;;20.73;;
7045;SDS011;3564;53.326;10.356;2022-08-19T09:21:20;31.57;;;21.30;;
7045;SDS011;3564;53.326;10.356;2022-08-19T09:23:47;28.93;;;20.57;;
7045;SDS011;3564;53.326;10.356;2022-08-19T09:26:15;30.97;;;20.93;;
7045;SDS011;3564;53.326;10.356;2022-08-19T09:28:45;31.40;;;20.67;;
7045;SDS011;3564;53.326;10.356;2022-08-19T09:31:13;28.27;;;19.53;;
7045;SDS011;3564;53.326;10.356;2022-08-19T09:33:40;30.23;;;19.60;;
7045;SDS011;3564;53.326;10.356;2022-08-19T09:36:09;24.83;;;18.13;;
7045;SDS011;3564;53.326;10.356;2022-08-19T09:38:36;27.83;;;19.10;;
7045;SDS011;3564;53.326;10.356;2022-08-19T09:41:06;34.83;;;19.87;;
7045;SDS011;3564;53.326;10.356;2022-08-19T09:43:36;27.37;;;18.27;;
7045;SDS011;3564;53.326;10.356;2022-08-19T09:46:02;27.90;;;17.83;;
7045;SDS011;3564;53.326;10.356;2022-08-19T09:48:31;28.47;;;18.27;;
7045;SDS011;3564;53.326;10.356;2022-08-19T09:51:08;26.07;;;17.30;;
7045;SDS011;3564;53.326;10.356;2022-08-19T09:53:35;31.70;;;18.20;;
7045;SDS011;3564;53.326;10.356;2022-08-19T09:56:03;29.80;;;18.13;;
7045;SDS011;3564;53.326;10.356;2022-08-19T09:58:31;27.73;;;17.23;;
7045;SDS011;3564;53.326;10.356;2022-08-19T10:01:00;29.50;;;17.97;;
7045;SDS011;3564;53.326;10.356;2022-08-19T10:03:27;29.27;;;18.30;;
7045;SDS011;3564;53.326;10.356;2022-08-19T10:05:54;33.33;;;20.53;;
7045;SDS011;3564;53.326;10.356;2022-08-19T10:08:22;33.37;;;22.33;;
7045;SDS011;3564;53.326;10.356;2022-08-19T10:11:09;38.87;;;23.10;;
7045;SDS011;3564;53.326;10.356;2022-08-19T10:13:34;35.77;;;23.40;;
7045;SDS011;3564;53.326;10.356;2022-08-19T10:16:08;38.00;;;23.10;;
7045;SDS011;3564;53.326;10.356;2022-08-19T10:18:36;38.50;;;21.90;;
7045;SDS011;3564;53.326;10.356;2022-08-19T10:21:07;35.50;;;23.33;;
7045;SDS011;3564;53.326;10.356;2022-08-19T10:23:36;36.83;;;22.40;;
7045;SDS011;3564;53.326;10.356;2022-08-19T10:26:03;38.40;;;23.90;;
7045;SDS011;3564;53.326;10.356;2022-08-19T10:28:30;40.47;;;25.60;;
7045;SDS011;3564;53.326;10.356;2022-08-19T10:30:57;43.40;;;26.20;;
7045;SDS011;3564;53.326;10.356;2022-08-19T10:33:23;38.00;;;24.80;;
7045;SDS011;3564;53.326;10.356;2022-08-19T10:35:58;33.60;;;23.10;;
7045;SDS011;3564;53.326;10.356;2022-08-19T10:38:25;43.13;;;26.70;;
7045;SDS011;3564;53.326;10.356;2022-08-19T10:40:51;38.40;;;25.23;;
7045;SDS011;3564;53.326;10.356;2022-08-19T10:43:17;41.67;;;25.63;;
7045;SDS011;3564;53.326;10.356;2022-08-19T10:45:43;39.10;;;25.73;;
7045;SDS011;3564;53.326;10.356;2022-08-19T10:48:16;39.30;;;24.73;;
7045;SDS011;3564;53.326;10.356;2022-08-19T10:50:42;40.67;;;25.67;;
7045;SDS011;3564;53.326;10.356;2022-08-19T10:53:26;38.93;;;25.70;;
7045;SDS011;3564;53.326;10.356;2022-08-19T10:55:51;41.87;;;27.27;;
7045;SDS011;3564;53.326;10.356;2022-08-19T10:58:36;45.20;;;27.47;;
7045;SDS011;3564;53.326;10.356;2022-08-19T11:01:01;38.70;;;26.93;;
7045;SDS011;3564;53.326;10.356;2022-08-19T11:03:27;35.57;;;25.60;;
7045;SDS011;3564;53.326;10.356;2022-08-19T11:05:58;40.57;;;27.13;;
7045;SDS011;3564;53.326;10.356;2022-08-19T11:08:24;38.53;;;27.43;;
7045;SDS011;3564;53.326;10.356;2022-08-19T11:10:52;41.93;;;29.80;;
7045;SDS011;3564;53.326;10.356;2022-08-19T11:13:26;53.70;;;29.40;;
7045;SDS011;3564;53.326;10.356;2022-08-19T11:16:02;39.83;;;26.90;;
7045;SDS011;3564;53.326;10.356;2022-08-19T11:18:34;48.87;;;30.20;;
7045;SDS011;3564;53.326;10.356;2022-08-19T11:21:05;41.73;;;28.73;;
7045;SDS011;3564;53.326;10.356;2022-08-19T11:23:35;42.17;;;29.43;;
7045;SDS011;3564;53.326;10.356;2022-08-19T11:26:01;39.60;;;28.07;;
7045;SDS011;3564;53.326;10.356;2022-08-19T11:28:26;37.47;;;27.47;;
7045;SDS011;3564;53.326;10.356;2022-08-19T11:30:52;44.80;;;29.60;;
7045;SDS011;3564;53.326;10.356;2022-08-19T11:33:17;48.60;;;28.87;;
7045;SDS011;3564;53.326;10.356;2022-08-19T11:35:43;36.43;;;26.90;;
7045;SDS011;3564;53.326;10.356;2022-08-19T11:38:09;37.83;;;25.80;;
7045;SDS011;3564;53.326;10.356;2022-08-19T11:40:36;36.53;;;26.43;;
7045;SDS011;3564;53.326;10.356;2022-08-19T11:43:02;37.20;;;27.37;;
7045;SDS011;3564;53.326;10.356;2022-08-19T11:45:28;34.63;;;26.00;;
7045;SDS011;3564;53.326;10.356;2022-08-19T11:47:55;33.63;;;25.70;;
7045;SDS011;3564;53.326;10.356;2022-08-19T11:50:21;36.20;;;27.13;;
7045;SDS011;3564;53.326;10.356;2022-08-19T11:52:48;39.87;;;27.67;;
7045;SDS011;3564;53.326;10.356;2022-08-19T11:55:14;44.73;;;31.57;;
7045;SDS011;3564;53.326;10.356;2022-08-19T11:57:40;39.97;;;29.97;;
7045;SDS011;3564;53.326;10.356;2022-08-19T12:00:08;40.13;;;31.53;;
7045;SDS011;3564;53.326;10.356;2022-08-19T12:02:36;38.47;;;29.30;;
7045;SDS011;3564;53.326;10.356;2022-08-19T12:05:01;33.63;;;26.47;;
7045;SDS011;3564;53.326;10.356;2022-08-19T12:07:28;41.03;;;28.47;;
7045;SDS011;3564;53.326;10.356;2022-08-19T12:09:57;34.00;;;26.03;;
7045;SDS011;3564;53.326;10.356;2022-08-19T12:12:24;35.03;;;26.70;;
7045;SDS011;3564;53.326;10.356;2022-08-19T12:14:49;39.77;;;28.43;;
7045;SDS011;3564;53.326;10.356;2022-08-19T12:17:21;35.90;;;27.80;;
7045;SDS011;3564;53.326;10.356;2022-08-19T12:19:48;30.60;;;25.87;;
7045;SDS011;3564;53.326;10.356;2022-08-19T12:22:14;33.00;;;25.90;;
7045;SDS011;3564;53.326;10.356;2022-08-19T12:24:40;32.90;;;26.73;;
7045;SDS011;3564;53.326;10.356;2022-08-19T12:27:06;33.53;;;25.73;;
7045;SDS011;3564;53.326;10.356;2022-08-19T12:29:32;34.03;;;28.33;;
7045;SDS011;3564;53.326;10.356;2022-08-19T12:31:59;39.23;;;28.13;;
7045;SDS011;3564;53.326;10.356;2022-08-19T12:34:27;32.93;;;27.60;;
7045;SDS011;3564;53.326;10.356;2022-08-19T12:36:57;35.27;;;27.37;;
7045;SDS011;3564;53.326;10.356;2022-08-19T12:39:25;38.03;;;29.20;;
7045;SDS011;3564;53.326;10.356;2022-08-19T12:41:51;38.30;;;29.20;;
7045;SDS011;3564;53.326;10.356;2022-08-19T12:44:17;36.60;;;29.47;;
7045;SDS011;3564;53.326;10.356;2022-08-19T12:46:43;35.10;;;29.03;;
7045;SDS011;3564;53.326;10.356;2022-08-19T12:49:08;35.13;;;26.93;;
7045;SDS011;3564;53.326;10.356;2022-08-19T12:51:35;34.37;;;26.67;;
7045;SDS011;3564;53.326;10.356;2022-08-19T12:54:02;36.67;;;25.87;;
7045;SDS011;3564;53.326;10.356;2022-08-19T12:56:28;32.20;;;24.33;;
7045;SDS011;3564;53.326;10.356;2022-08-19T12:58:54;36.17;;;27.37;;
7045;SDS011;3564;53.326;10.356;2022-08-19T13:01:20;31.10;;;24.30;;
7045;SDS011;3564;53.326;10.356;2022-08-19T13:03:46;35.30;;;25.23;;
7045;SDS011;3564;53.326;10.356;2022-08-19T13:06:12;32.43;;;27.00;;
7045;SDS011;3564;53.326;10.356;2022-08-19T13:08:38;32.47;;;24.27;;
7045;SDS011;3564;53.326;10.356;2022-08-19T13:11:13;34.23;;;26.43;;
7045;SDS011;3564;53.326;10.356;2022-08-19T13:13:42;36.23;;;26.50;;
7045;SDS011;3564;53.326;10.356;2022-08-19T13:16:10;32.20;;;25.30;;
7045;SDS011;3564;53.326;10.356;2022-08-19T13:18:36;29.13;;;23.30;;
7045;SDS011;3564;53.326;10.356;2022-08-19T13:21:06;33.93;;;24.73;;
7045;SDS011;3564;53.326;10.356;2022-08-19T13:23:34;27.03;;;23.13;;
7045;SDS011;3564;53.326;10.356;2022-08-19T13:26:02;30.33;;;23.70;;
7045;SDS011;3564;53.326;10.356;2022-08-19T13:28:30;25.90;;;21.37;;
7045;SDS011;3564;53.326;10.356;2022-08-19T13:31:17;27.00;;;21.03;;
7045;SDS011;3564;53.326;10.356;2022-08-19T13:34:03;24.93;;;20.03;;
7045;SDS011;3564;53.326;10.356;2022-08-19T13:36:29;26.13;;;19.87;;
7045;SDS011;3564;53.326;10.356;2022-08-19T13:38:54;24.37;;;19.60;;
7045;SDS011;3564;53.326;10.356;2022-08-19T13:41:21;23.77;;;20.67;;
7045;SDS011;3564;53.326;10.356;2022-08-19T13:43:47;23.57;;;18.70;;
7045;SDS011;3564;53.326;10.356;2022-08-19T13:46:14;27.50;;;21.90;;
7045;SDS011;3564;53.326;10.356;2022-08-19T13:48:41;25.13;;;20.57;;
7045;SDS011;3564;53.326;10.356;2022-08-19T13:51:07;25.37;;;20.13;;
7045;SDS011;3564;53.326;10.356;2022-08-19T13:53:36;23.67;;;18.70;;
7045;SDS011;3564;53.326;10.356;2022-08-19T13:56:06;26.20;;;21.37;;
7045;SDS011;3564;53.326;10.356;2022-08-19T13:58:52;23.53;;;19.13;;
7045;SDS011;3564;53.326;10.356;2022-08-19T14:01:19;22.83;;;18.37;;
7045;SDS011;3564;53.326;10.356;2022-08-19T14:03:48;26.33;;;22.27;;
7045;SDS011;3564;53.326;10.356;2022-08-19T14:06:14;23.33;;;20.83;;
7045;SDS011;3564;53.326;10.356;2022-08-19T14:08:42;25.10;;;21.63;;
7045;SDS011;3564;53.326;10.356;2022-08-19T14:11:08;24.83;;;22.10;;
7045;SDS011;3564;53.326;10.356;2022-08-19T14:13:34;23.63;;;21.07;;
7045;SDS011;3564;53.326;10.356;2022-08-19T14:16:00;24.10;;;21.50;;
7045;SDS011;3564;53.326;10.356;2022-08-19T14:18:25;23.73;;;21.03;;
7045;SDS011;3564;53.326;10.356;2022-08-19T14:20:51;27.17;;;22.87;;
7045;SDS011;3564;53.326;10.356;2022-08-19T14:23:17;24.73;;;21.60;;
7045;SDS011;3564;53.326;10.356;2022-08-19T14:25:43;27.27;;;22.63;;
7045;SDS011;3564;53.326;10.356;2022-08-19T14:28:09;26.97;;;21.27;;
7045;SDS011;3564;53.326;10.356;2022-08-19T14:30:35;24.03;;;21.47;;
7045;SDS011;3564;53.326;10.356;2022-08-19T14:33:03;25.30;;;20.30;;
7045;SDS011;3564;53.326;10.356;2022-08-19T14:35:31;28.30;;;23.60;;
7045;SDS011;3564;53.326;10.356;2022-08-19T14:38:04;21.10;;;18.90;;
7045;SDS011;3564;53.326;10.356;2022-08-19T14:40:31;24.00;;;21.43;;
7045;SDS011;3564;53.326;10.356;2022-08-19T14:42:58;22.87;;;20.43;;
7045;SDS011;3564;53.326;10.356;2022-08-19T14:45:27;23.53;;;20.07;;
7045;SDS011;3564;53.326;10.356;2022-08-19T14:47:53;17.77;;;15.90;;
7045;SDS011;3564;53.326;10.356;2022-08-19T14:50:19;17.30;;;15.33;;
7045;SDS011;3564;53.326;10.356;2022-08-19T14:52:48;18.67;;;15.70;;
7045;SDS011;3564;53.326;10.356;2022-08-19T14:55:15;20.50;;;16.10;;
7045;SDS011;3564;53.326;10.356;2022-08-19T14:57:42;19.77;;;17.67;;